Vesljana, Russia
Current Conditions -  °F | °C
As of 7:30 AM on Friday 31 Oct 2014 (Local Time) from UUYY Reporting Station
Overcast Overcast  
Wind Chill: 24°   Ceiling: 2600
Heat Index: 30°   Visibility: 6mi
Dew Point: 28°   Wind: 7mph
Humidity: 93%   Direction: 210°SSW
Pressure: 29.74"   Gusts: NA
Location:  62.98°N, 50.9°E
Report Text: UUYY 310430Z 21003MPS 9000 OVC026 M01/M02 Q1007 NOSIG 1932//49 RMK QFE747/0996
Loading
Personal Weather Stations






























Interactive Weather Map
Tropical Storm Tracking
New forecast layout! Learn more

10-Day Weather Forecast

Advertisements
Track Severe Weather on mobile